Time;durP1;ratioP1;P1;durP2;ratioP2;P2;SDS_P1;SDS_P2;PMS_P1;PMS_P2;Temp;Humidity;BMP_temperature;BMP_pressure;BME280_temperature;BME280_humidity;BME280_pressure;Samples;Min_cycle;Max_cycle;Signal;HPM_P1;HPM_P2
2020/12/18 00:01:31;;;;;;;28.75;16.60;;;;;;;6.12;74.98;96116.41;5047362;28;20277;-64
2020/12/18 00:03:58;;;;;;;30.13;16.83;;;;;;;6.10;75.30;96114.00;5044092;28;20196;-62
2020/12/18 00:06:32;;;;;;;28.83;16.88;;;;;;;6.18;74.83;96110.41;5047031;28;20627;-63
2020/12/18 00:08:58;;;;;;;31.05;17.35;;;;;;;5.98;74.88;96114.78;5043656;28;20192;-64
2020/12/18 00:11:27;;;;;;;31.77;17.77;;;;;;;6.09;74.89;96096.00;5047133;28;20180;-65
2020/12/18 00:13:54;;;;;;;33.42;19.48;;;;;;;6.24;74.58;96114.81;5043590;28;20309;-64
2020/12/18 00:16:21;;;;;;;33.65;18.73;;;;;;;6.13;74.91;96118.81;5047015;28;20195;-64
2020/12/18 00:18:48;;;;;;;29.20;16.60;;;;;;;5.91;74.96;96109.53;5045875;28;20224;-62
2020/12/18 00:21:22;;;;;;;29.92;16.75;;;;;;;6.01;75.41;96114.38;5049174;28;20184;-63
2020/12/18 00:23:50;;;;;;;30.80;16.48;;;;;;;5.70;76.30;96116.66;5050289;28;20303;-63
2020/12/18 00:26:18;;;;;;;29.15;16.67;;;;;;;5.97;75.43;96113.16;5052456;28;20259;-62
2020/12/18 00:28:45;;;;;;;30.67;17.48;;;;;;;6.06;74.61;96107.59;5052379;28;20283;-66
2020/12/18 00:31:12;;;;;;;28.80;16.15;;;;;;;6.05;74.42;96119.00;5052435;28;20181;-64
2020/12/18 00:33:38;;;;;;;28.95;16.92;;;;;;;5.76;75.68;96118.50;5051628;28;20220;-63
2020/12/18 00:36:09;;;;;;;29.33;16.95;;;;;;;5.86;74.96;96117.16;5052393;28;20192;-66
2020/12/18 00:38:35;;;;;;;30.88;17.77;;;;;;;6.00;74.75;96123.19;5048967;28;20235;-65
2020/12/18 00:41:01;;;;;;;31.85;17.40;;;;;;;5.94;75.18;96114.38;5051759;28;20196;-62
2020/12/18 00:43:28;;;;;;;33.25;18.52;;;;;;;5.99;74.76;96118.97;5051448;28;20294;-64
2020/12/18 00:45:54;;;;;;;28.55;16.77;;;;;;;6.16;74.40;96109.81;5051792;28;20200;-61
2020/12/18 00:48:21;;;;;;;30.73;17.08;;;;;;;6.26;73.65;96119.84;5067025;28;20196;-61
2020/12/18 00:50:47;;;;;;;31.25;18.27;;;;;;;6.29;73.69;96125.44;5051497;28;20276;-62
2020/12/18 00:53:15;;;;;;;33.40;18.85;;;;;;;6.37;73.41;96122.63;5052510;28;20197;-62
2020/12/18 00:55:44;;;;;;;31.25;18.13;;;;;;;6.49;73.03;96126.25;5050486;28;20192;-61
2020/12/18 00:58:11;;;;;;;32.25;18.42;;;;;;;6.32;73.02;96122.44;5047917;28;20644;-63
2020/12/18 01:00:38;;;;;;;32.17;17.52;;;;;;;6.30;72.92;96114.03;5051045;28;20200;-62
2020/12/18 01:03:11;;;;;;;30.80;18.02;;;;;;;6.35;72.67;96122.03;5048304;28;20343;-64
2020/12/18 01:05:38;;;;;;;28.38;17.35;;;;;;;6.33;73.11;96120.66;5066366;28;20605;-61
2020/12/18 01:08:05;;;;;;;34.60;18.35;;;;;;;6.32;73.04;96119.84;5049885;28;20200;-62
2020/12/18 01:10:33;;;;;;;32.13;18.63;;;;;;;6.11;73.06;96117.41;5066448;28;20203;-64
2020/12/18 01:13:00;;;;;;;29.60;17.02;;;;;;;6.18;73.22;96118.22;5050086;28;20331;-64
2020/12/18 01:15:30;;;;;;;33.75;18.60;;;;;;;6.10;73.75;96121.00;5050848;28;20204;-63
2020/12/18 01:18:02;;;;;;;31.55;17.58;;;;;;;6.22;73.29;96114.22;5066429;28;20311;-64
2020/12/18 01:20:28;;;;;;;31.38;17.25;;;;;;;5.93;73.92;96133.56;5049089;28;20296;-64
2020/12/18 01:22:55;;;;;;;31.20;17.00;;;;;;;5.83;74.61;96121.94;5068275;28;20201;-64
2020/12/18 01:25:22;;;;;;;31.98;18.00;;;;;;;5.76;74.99;96121.09;5066007;28;20221;-61
2020/12/18 01:27:49;;;;;;;32.70;17.65;;;;;;;5.63;75.36;96126.25;5066002;28;20207;-63
2020/12/18 01:30:16;;;;;;;35.20;19.55;;;;;;;5.69;75.73;96125.47;5050624;28;20200;-63
2020/12/18 01:32:45;;;;;;;33.08;17.98;;;;;;;5.76;75.22;96115.88;5050859;28;20605;-65
2020/12/18 01:35:12;;;;;;;34.05;18.67;;;;;;;5.64;75.38;96122.66;5065225;28;20254;-62
2020/12/18 01:37:53;;;;;;;35.13;19.20;;;;;;;5.58;76.00;96116.44;5046852;28;20311;-65
2020/12/18 01:40:22;;;;;;;30.27;16.52;;;;;;;5.60;75.44;96113.63;5065681;28;20189;-63
2020/12/18 01:42:49;;;;;;;34.40;18.45;;;;;;;5.55;75.83;96106.41;5049633;28;20204;-62
2020/12/18 01:45:16;;;;;;;32.28;18.27;;;;;;;5.50;76.33;96110.59;5049139;28;20203;-61
2020/12/18 01:48:00;;;;;;;34.08;18.38;;;;;;;5.75;75.67;96112.47;5066223;28;20192;-61
2020/12/18 01:50:32;;;;;;;35.28;19.15;;;;;;;5.93;74.81;96119.78;5046402;28;20211;-64
2020/12/18 01:53:00;;;;;;;36.50;19.10;;;;;;;6.12;74.45;96117.22;5050730;28;20295;-64
2020/12/18 01:55:41;;;;;;;34.13;19.17;;;;;;;6.11;74.25;96112.22;5048821;28;20180;-63
2020/12/18 01:58:09;;;;;;;36.28;19.77;;;;;;;6.25;73.99;96115.63;5065772;28;20311;-62
2020/12/18 02:00:43;;;;;;;38.67;20.98;;;;;;;6.06;73.67;96093.75;5048315;28;20180;-64
2020/12/18 02:03:15;;;;;;;38.10;20.63;;;;;;;6.29;73.34;96114.22;5062989;28;20204;-64
2020/12/18 02:06:04;;;;;;;36.25;20.25;;;;;;;6.21;72.98;96101.38;5048919;28;20215;-61
2020/12/18 02:08:48;;;;;;;36.42;19.58;;;;;;;6.32;73.45;96104.22;5048703;28;20203;-62
2020/12/18 02:11:47;;;;;;;28.92;16.50;;;;;;;6.27;73.26;96109.22;5047651;28;20295;-64
2020/12/18 02:14:17;;;;;;;29.40;16.95;;;;;;;6.34;72.78;96104.81;5047197;28;20193;-64
2020/12/18 02:16:50;;;;;;;26.73;15.45;;;;;;;6.37;72.60;96099.19;5065863;28;20199;-63
2020/12/18 02:19:29;;;;;;;25.45;15.35;;;;;;;6.40;72.63;96101.44;5048649;28;20196;-61
2020/12/18 02:22:13;;;;;;;24.65;14.73;;;;;;;6.49;72.44;96095.03;5048779;28;20287;-66
2020/12/18 02:24:56;;;;;;;32.15;18.33;;;;;;;6.48;72.64;96095.22;5048137;28;20196;-61
2020/12/18 02:27:23;;;;;;;29.52;16.45;;;;;;;6.44;72.43;96099.22;5047011;28;20250;-63
2020/12/18 02:29:56;;;;;;;32.47;18.23;;;;;;;6.40;72.24;96093.63;5062203;28;20302;-62
2020/12/18 02:32:24;;;;;;;29.88;17.27;;;;;;;6.40;72.17;96101.44;5049630;28;20204;-65
2020/12/18 02:35:00;;;;;;;40.92;23.33;;;;;;;6.27;72.52;96104.00;5046195;28;20591;-64
2020/12/18 02:37:34;;;;;;;42.58;22.83;;;;;;;6.25;72.77;96100.00;5045941;28;20225;-64
2020/12/18 02:40:04;;;;;;;41.70;22.42;;;;;;;6.34;72.22;96102.22;5064698;28;20231;-64
2020/12/18 02:42:59;;;;;;;43.92;23.55;;;;;;;6.18;72.56;96103.38;4987530;28;20206;-62
2020/12/18 02:45:28;;;;;;;41.30;22.20;;;;;;;5.93;73.50;96101.56;5046498;28;20219;-65
2020/12/18 02:48:12;;;;;;;45.80;22.25;;;;;;;5.62;74.54;96111.66;5075873;28;20196;-62
2020/12/18 02:50:49;;;;;;;41.42;21.40;;;;;;;5.29;75.72;96113.31;5047851;28;20193;-63
2020/12/18 02:53:20;;;;;;;43.58;21.80;;;;;;;5.52;75.19;96124.19;5047020;28;20225;-65
2020/12/18 02:56:09;;;;;;;45.13;21.95;;;;;;;5.25;75.66;96106.88;5031723;28;20278;-63
2020/12/18 02:59:03;;;;;;;44.05;21.50;;;;;;;5.15;76.40;96102.84;5045834;28;20224;-63
2020/12/18 03:01:31;;;;;;;43.45;21.98;;;;;;;5.07;77.28;96113.38;5047625;28;20243;-63
2020/12/18 03:03:58;;;;;;;45.97;23.73;;;;;;;5.11;77.09;96109.41;5047405;28;20224;-62
2020/12/18 03:06:47;;;;;;;48.88;23.55;;;;;;;5.34;76.91;96105.72;5049558;28;20705;-62
2020/12/18 03:09:14;;;;;;;47.80;23.50;;;;;;;5.40;76.17;96099.75;5045657;28;20193;-64
2020/12/18 03:11:42;;;;;;;47.58;24.25;;;;;;;5.25;76.39;96107.69;5049052;28;20690;-62
2020/12/18 03:14:09;;;;;;;45.75;23.25;;;;;;;5.52;75.80;96100.81;5064260;28;20212;-63
2020/12/18 03:16:44;;;;;;;47.05;23.77;;;;;;;5.30;76.19;96109.69;5064509;28;20187;-62
2020/12/18 03:19:30;;;;;;;47.50;22.77;;;;;;;5.04;76.60;96113.78;5046641;28;20208;-62
2020/12/18 03:22:07;;;;;;;47.95;22.83;;;;;;;5.33;76.22;96111.94;5047084;28;20674;-61
2020/12/18 03:24:52;;;;;;;49.53;22.92;;;;;;;5.61;75.50;96110.03;5048029;28;20208;-62
2020/12/18 03:27:37;;;;;;;45.78;23.52;;;;;;;5.77;75.38;96107.06;5045405;28;20197;-62
2020/12/18 03:30:08;;;;;;;45.88;23.65;;;;;;;5.67;74.93;96117.06;5046913;28;20215;-66
2020/12/18 03:32:34;;;;;;;42.55;22.85;;;;;;;5.61;75.04;96107.44;5044146;28;20992;-62
2020/12/18 03:35:11;;;;;;;45.65;22.13;;;;;;;5.73;74.83;96116.28;5046728;28;20200;-62
2020/12/18 03:37:39;;;;;;;44.17;21.70;;;;;;;5.73;74.71;96111.09;5063733;28;20213;-63
2020/12/18 03:40:08;;;;;;;44.00;22.33;;;;;;;5.85;74.42;96110.34;5063250;28;20224;-61
2020/12/18 03:42:39;;;;;;;41.58;20.70;;;;;;;5.93;73.97;96111.97;5070298;28;20201;-63
2020/12/18 03:45:06;;;;;;;45.35;22.42;;;;;;;5.78;73.75;96088.69;5063356;28;20687;-62
2020/12/18 03:47:53;;;;;;;44.03;21.88;;;;;;;5.99;73.85;96116.38;5047859;28;20612;-61
2020/12/18 03:50:24;;;;;;;42.97;21.25;;;;;;;5.86;73.68;96126.75;5046474;28;20193;-63
2020/12/18 03:53:07;;;;;;;42.63;21.45;;;;;;;5.90;73.60;96120.16;5045846;28;20205;-63
2020/12/18 03:55:37;;;;;;;46.53;22.23;;;;;;;5.88;73.59;96120.34;5060481;28;20189;-63
2020/12/18 03:58:26;;;;;;;42.70;20.70;;;;;;;5.74;73.75;96123.09;5041960;28;20224;-63
2020/12/18 04:01:09;;;;;;;43.80;22.70;;;;;;;5.66;74.27;96120.66;5063429;28;20586;-62
2020/12/18 04:03:36;;;;;;;45.65;22.15;;;;;;;5.83;73.92;96127.94;5043637;28;20209;-64
2020/12/18 04:06:07;;;;;;;45.58;22.02;;;;;;;5.85;73.38;96125.16;5046830;28;20663;-65
2020/12/18 04:08:33;;;;;;;43.05;22.13;;;;;;;5.76;73.88;96119.31;5046194;28;20718;-63
2020/12/18 04:11:14;;;;;;;41.20;21.35;;;;;;;5.90;73.20;96117.56;5046763;28;20190;-60
2020/12/18 04:13:59;;;;;;;39.88;20.20;;;;;;;5.84;73.29;96124.34;5044982;28;20597;-62
2020/12/18 04:16:39;;;;;;;43.67;21.05;;;;;;;5.90;73.13;96127.97;5044257;28;20192;-62
2020/12/18 04:19:06;;;;;;;40.53;21.15;;;;;;;5.81;73.53;96134.31;5046190;28;20220;-64
2020/12/18 04:21:33;;;;;;;41.15;20.38;;;;;;;5.78;73.52;96139.91;5046580;28;20192;-64
2020/12/18 04:24:18;;;;;;;40.75;20.88;;;;;;;5.82;72.72;96141.13;5062801;28;20282;-63
2020/12/18 04:26:47;;;;;;;43.85;21.77;;;;;;;5.57;73.58;96142.59;5046563;28;20208;-60
2020/12/18 04:29:16;;;;;;;42.08;21.00;;;;;;;5.40;74.22;96146.56;5046764;28;20197;-63
2020/12/18 04:31:43;;;;;;;41.78;21.40;;;;;;;5.39;74.43;96145.75;5048083;28;20187;-61
2020/12/18 04:34:10;;;;;;;42.13;21.63;;;;;;;5.40;73.94;96141.34;5047208;28;20226;-62
2020/12/18 04:36:54;;;;;;;42.15;21.45;;;;;;;5.57;73.92;96153.00;5045849;28;20192;-62
2020/12/18 04:39:39;;;;;;;39.88;20.45;;;;;;;5.50;73.89;96141.78;5060083;28;20288;-62
2020/12/18 04:42:06;;;;;;;41.03;21.10;;;;;;;5.62;73.64;96145.44;5047784;28;20231;-63
2020/12/18 04:44:32;;;;;;;43.42;21.55;;;;;;;5.47;73.75;96152.56;5046079;28;20207;-63
2020/12/18 04:47:07;;;;;;;42.75;21.17;;;;;;;5.58;73.58;96139.03;5063084;28;20215;-61
2020/12/18 04:49:39;;;;;;;44.70;21.17;;;;;;;5.68;73.14;96140.25;5042447;28;20231;-66
2020/12/18 04:52:13;;;;;;;47.33;21.90;;;;;;;5.73;73.17;96144.91;5048194;28;20370;-66
2020/12/18 04:54:59;;;;;;;40.63;20.45;;;;;;;5.60;72.96;96150.81;5061941;28;20193;-61
2020/12/18 04:57:57;;;;;;;39.55;20.92;;;;;;;5.60;73.12;96148.22;5034787;28;20228;-64
2020/12/18 05:00:26;;;;;;;39.47;19.45;;;;;;;5.61;73.13;96164.63;5045152;28;20671;-65
2020/12/18 05:03:18;;;;;;;39.83;19.73;;;;;;;5.58;73.11;96149.44;5044532;28;20265;-65
2020/12/18 05:05:46;;;;;;;35.72;18.58;;;;;;;5.33;73.55;96145.72;5062049;28;20633;-64
2020/12/18 05:08:16;;;;;;;38.80;20.20;;;;;;;5.56;73.21;96156.63;5045582;28;20253;-62
2020/12/18 05:10:44;;;;;;;33.55;17.02;;;;;;;5.29;73.03;96157.47;5048726;28;20197;-64
2020/12/18 05:13:26;;;;;;;39.65;18.90;;;;;;;5.04;73.99;96157.94;5048793;28;20192;-65
2020/12/18 05:16:00;;;;;;;35.60;17.58;;;;;;;4.73;74.20;96162.69;5068097;28;20201;-62
2020/12/18 05:19:05;;;;;;;40.45;19.30;;;;;;;4.99;74.39;96160.31;5047461;28;20231;-64
2020/12/18 05:21:53;;;;;;;38.00;19.20;;;;;;;4.99;74.52;96170.69;5031529;28;20188;-66
2020/12/18 05:24:40;;;;;;;42.75;20.15;;;;;;;4.83;74.90;96164.97;5045483;28;20192;-65
2020/12/18 05:27:08;;;;;;;42.95;20.52;;;;;;;4.80;74.87;96175.75;5049239;28;20211;-62
2020/12/18 05:29:38;;;;;;;42.85;21.00;;;;;;;5.10;74.23;96177.97;5047492;28;20184;-64
2020/12/18 05:32:43;;;;;;;38.38;18.85;;;;;;;5.15;73.83;96185.97;5049769;28;20291;-65
2020/12/18 05:35:16;;;;;;;36.53;18.50;;;;;;;5.06;73.80;96181.13;5046243;28;20205;-63
2020/12/18 05:38:10;;;;;;;35.80;18.30;;;;;;;4.91;73.54;96177.81;5064349;28;20234;-65
2020/12/18 05:41:09;;;;;;;35.22;18.00;;;;;;;5.14;73.63;96180.97;5041472;28;20204;-65
2020/12/18 05:43:49;;;;;;;41.45;19.92;;;;;;;5.18;73.62;96190.00;5048879;28;20207;-65
2020/12/18 05:46:40;;;;;;;39.53;19.50;;;;;;;5.20;73.45;96188.00;5050361;28;20204;-64
2020/12/18 05:49:15;;;;;;;38.45;19.15;;;;;;;5.15;73.86;96185.97;5048176;28;20200;-62
2020/12/18 05:51:55;;;;;;;32.05;16.90;;;;;;;5.09;73.34;96194.53;5065521;28;20204;-64
2020/12/18 05:54:39;;;;;;;32.97;17.02;;;;;;;5.03;73.62;96184.91;5045073;28;20192;-64
2020/12/18 05:57:14;;;;;;;34.30;16.38;;;;;;;5.08;73.63;96187.75;5065750;28;20210;-64
2020/12/18 05:59:49;;;;;;;33.30;17.55;;;;;;;4.81;73.28;96193.75;5047694;28;20287;-64
2020/12/18 06:02:28;;;;;;;37.10;18.98;;;;;;;5.10;73.37;96198.75;5066425;28;20759;-63
2020/12/18 06:05:24;;;;;;;38.33;19.48;;;;;;;4.82;74.52;96190.13;5047852;28;20708;-62
2020/12/18 06:08:17;;;;;;;37.50;18.77;;;;;;;4.81;74.81;96204.13;5048016;28;20315;-65
2020/12/18 06:10:51;;;;;;;39.65;19.88;;;;;;;5.07;74.07;96193.13;5047738;28;20199;-62
2020/12/18 06:13:24;;;;;;;46.25;20.00;;;;;;;4.63;74.66;96180.41;5061285;28;20281;-63
2020/12/18 06:16:11;;;;;;;36.85;19.48;;;;;;;4.97;74.38;96203.84;5012745;28;20208;-61
2020/12/18 06:18:49;;;;;;;37.45;18.38;;;;;;;4.83;74.35;96206.53;5048975;28;20411;-62
2020/12/18 06:21:26;;;;;;;35.70;18.73;;;;;;;4.53;75.31;96205.88;5048738;28;20204;-61
2020/12/18 06:23:54;;;;;;;38.70;18.45;;;;;;;4.61;75.63;96203.16;5049661;28;20295;-61
2020/12/18 06:27:00;;;;;;;42.28;20.30;;;;;;;4.80;75.01;96199.91;5038260;28;20661;-67
2020/12/18 06:29:47;;;;;;;41.55;20.33;;;;;;;4.76;74.87;96216.84;5040946;28;20714;-64
2020/12/18 06:32:49;;;;;;;39.78;19.90;;;;;;;4.64;75.83;96213.16;5026885;28;20223;-65
2020/12/18 06:35:29;;;;;;;39.58;19.98;;;;;;;4.67;74.87;96212.00;5043187;28;20203;-67
2020/12/18 06:38:25;;;;;;;40.13;20.35;;;;;;;4.40;76.50;96218.72;5035939;28;20600;-64
2020/12/18 06:41:23;;;;;;;41.70;20.35;;;;;;;4.76;75.43;96216.84;5033992;28;20199;-66
2020/12/18 06:44:49;;;;;;;39.45;19.95;;;;;;;4.82;75.07;96221.31;5048462;28;20200;-64
2020/12/18 06:47:45;;;;;;;41.60;20.23;;;;;;;4.60;75.41;96226.72;5012456;28;20196;-63
2020/12/18 06:50:34;;;;;;;42.35;21.17;;;;;;;4.62;75.87;96216.91;5049570;28;20200;-66
2020/12/18 06:53:26;;;;;;;40.83;19.67;;;;;;;4.36;76.54;96225.25;5046409;28;20308;-63
2020/12/18 06:56:27;;;;;;;41.53;21.48;;;;;;;4.35;76.79;96234.03;5045130;28;20206;-62
2020/12/18 06:59:22;;;;;;;40.03;20.60;;;;;;;4.28;76.82;96227.97;5047865;28;20235;-63
2020/12/18 07:01:48;;;;;;;44.25;21.42;;;;;;;4.56;76.73;96228.84;5048165;28;20185;-64
2020/12/18 07:04:21;;;;;;;46.20;22.30;;;;;;;4.81;76.13;96224.91;5048463;28;20256;-65
2020/12/18 07:06:48;;;;;;;45.30;21.23;;;;;;;4.65;75.29;96230.31;5047584;28;20755;-65
2020/12/18 07:09:20;;;;;;;42.65;19.50;;;;;;;4.55;75.58;96235.03;5048266;28;20260;-65
2020/12/18 07:11:47;;;;;;;40.10;20.63;;;;;;;4.47;76.01;96219.56;5048680;28;20738;-64
2020/12/18 07:14:16;;;;;;;41.80;19.80;;;;;;;4.62;75.27;96225.50;5048285;28;20610;-64
2020/12/18 07:16:53;;;;;;;41.22;21.00;;;;;;;4.31;75.92;96229.38;5045469;28;20568;-65
2020/12/18 07:19:21;;;;;;;42.47;20.52;;;;;;;4.48;78.75;96222.97;5045983;28;20247;-66
2020/12/18 07:22:11;;;;;;;39.38;19.58;;;;;;;4.41;77.42;96232.50;5048006;28;20201;-63
2020/12/18 07:24:38;;;;;;;41.13;21.02;;;;;;;4.62;76.76;96233.31;5048510;28;20205;-63
2020/12/18 07:27:05;;;;;;;39.88;19.05;;;;;;;4.36;75.29;96230.44;5048886;28;20196;-69
2020/12/18 07:29:31;;;;;;;39.10;19.15;;;;;;;4.16;75.76;96234.63;5048144;28;20184;-66
2020/12/18 07:31:57;;;;;;;39.50;21.20;;;;;;;4.43;75.78;96231.34;5048723;28;20192;-67
2020/12/18 07:34:24;;;;;;;145.35;92.97;;;;;;;4.57;76.56;96232.25;5037589;28;20234;-68
2020/12/18 07:36:50;;;;;;;153.32;92.55;;;;;;;4.77;76.13;96234.03;5048934;28;20199;-66
2020/12/18 07:39:17;;;;;;;71.85;39.05;;;;;;;4.98;74.81;96231.41;5048089;28;20204;-66
2020/12/18 07:41:44;;;;;;;44.97;23.10;;;;;;;4.85;74.79;96241.69;5043626;28;20202;-67
2020/12/18 07:44:10;;;;;;;44.17;21.92;;;;;;;4.85;74.67;96246.09;5046650;28;20271;-69
2020/12/18 07:46:38;;;;;;;47.67;24.00;;;;;;;4.64;74.59;96236.53;5047788;28;20642;-62
2020/12/18 07:49:09;;;;;;;71.43;34.55;;;;;;;4.28;76.33;96238.38;5046779;28;20192;-66
2020/12/18 07:51:37;;;;;;;172.30;104.57;;;;;;;4.57;76.56;96246.03;5046943;28;21015;-64
2020/12/18 07:54:04;;;;;;;58.50;27.25;;;;;;;4.54;76.05;96253.41;5046986;28;20726;-66
2020/12/18 07:56:30;;;;;;;55.00;25.80;;;;;;;4.50;75.54;96247.78;5047780;28;20215;-70
2020/12/18 07:59:05;;;;;;;51.17;25.48;;;;;;;4.29;76.45;96249.56;5047474;28;20216;-66
2020/12/18 08:01:35;;;;;;;58.42;25.42;;;;;;;4.41;77.06;96250.66;5047375;28;20689;-67
2020/12/18 08:04:02;;;;;;;57.85;27.55;;;;;;;4.62;75.79;96248.88;5043916;28;20193;-67
2020/12/18 08:06:34;;;;;;;230.80;139.18;;;;;;;4.92;75.84;96241.75;5047364;28;20662;-66
2020/12/18 08:09:06;;;;;;;158.23;89.35;;;;;;;5.07;74.66;96253.66;5041384;28;20655;-65
2020/12/18 08:11:34;;;;;;;63.33;30.48;;;;;;;4.76;74.57;96250.59;5047795;28;20596;-67
2020/12/18 08:14:03;;;;;;;59.30;28.05;;;;;;;4.82;74.63;96246.47;5044263;28;20578;-68
2020/12/18 08:16:31;;;;;;;63.75;29.05;;;;;;;4.82;74.29;96242.06;5047701;28;20203;-66
2020/12/18 08:19:11;;;;;;;59.97;28.98;;;;;;;4.59;74.60;96257.03;5046751;28;20212;-64
2020/12/18 08:21:41;;;;;;;58.00;29.33;;;;;;;4.29;75.68;96241.78;5046993;28;20210;-61
2020/12/18 08:24:33;;;;;;;104.55;53.15;;;;;;;4.65;75.79;96248.50;5047039;28;20188;-62
2020/12/18 08:27:09;;;;;;;114.45;62.42;;;;;;;4.43;75.41;96252.09;5046847;28;20678;-66
2020/12/18 08:29:37;;;;;;;212.95;131.48;;;;;;;4.65;75.48;96256.28;5046405;28;20204;-62
2020/12/18 08:32:04;;;;;;;72.60;36.40;;;;;;;5.02;74.28;96258.63;5047452;28;20193;-63
2020/12/18 08:34:33;;;;;;;63.90;30.73;;;;;;;5.06;73.73;96251.25;5046384;28;20238;-63
2020/12/18 08:37:04;;;;;;;65.05;31.60;;;;;;;5.03;73.36;96257.66;5044676;28;20204;-65
2020/12/18 08:39:35;;;;;;;68.57;30.75;;;;;;;4.89;73.33;96255.13;5046795;28;20241;-63
2020/12/18 08:42:03;;;;;;;70.90;33.42;;;;;;;4.68;73.54;96255.94;5045035;28;20196;-60
2020/12/18 08:44:39;;;;;;;57.72;29.23;;;;;;;4.57;74.37;96256.44;5047641;28;20193;-61
2020/12/18 08:47:26;;;;;;;94.95;39.85;;;;;;;4.97;73.38;96255.78;5049223;28;20196;-63
2020/12/18 08:49:57;;;;;;;60.55;29.95;;;;;;;4.93;73.18;96259.75;5049741;28;20198;-61
2020/12/18 08:52:30;;;;;;;62.83;32.92;;;;;;;4.90;72.89;96249.75;5048889;28;20592;-62
2020/12/18 08:55:07;;;;;;;62.22;30.25;;;;;;;4.93;73.32;96251.97;5050120;28;20254;-64
2020/12/18 08:57:38;;;;;;;66.47;32.75;;;;;;;5.24;72.97;96250.81;5050699;28;20200;-62
2020/12/18 09:00:07;;;;;;;60.50;33.03;;;;;;;5.50;75.09;96251.78;5048164;28;20211;-67
2020/12/18 09:02:35;;;;;;;63.53;35.88;;;;;;;5.61;73.51;96237.44;5050233;28;20291;-61
2020/12/18 09:05:28;;;;;;;56.97;30.25;;;;;;;5.75;72.31;96241.69;5047696;28;20271;-63
2020/12/18 09:08:01;;;;;;;87.38;42.53;;;;;;;5.62;71.05;96239.06;5045287;28;20333;-62
2020/12/18 09:10:27;;;;;;;61.40;32.00;;;;;;;5.60;71.13;96241.03;5048673;28;20200;-64
2020/12/18 09:12:54;;;;;;;49.40;27.13;;;;;;;5.47;70.29;96235.75;5051078;28;20214;-61
2020/12/18 09:15:25;;;;;;;49.05;27.38;;;;;;;5.43;71.10;96240.53;5048994;28;20263;-64
2020/12/18 09:18:02;;;;;;;59.78;29.42;;;;;;;5.38;70.59;96237.72;5050304;28;20208;-64
2020/12/18 09:20:33;;;;;;;51.22;28.10;;;;;;;5.57;70.16;96233.59;5048285;28;20195;-65
2020/12/18 09:23:03;;;;;;;49.20;27.77;;;;;;;5.79;69.97;96235.13;5047860;28;20582;-62
2020/12/18 09:25:33;;;;;;;50.47;27.40;;;;;;;5.93;69.81;96232.41;5049856;28;20196;-62
2020/12/18 09:28:00;;;;;;;45.15;26.50;;;;;;;6.00;69.49;96228.03;5050301;28;20813;-62
2020/12/18 09:30:29;;;;;;;52.03;29.08;;;;;;;5.96;69.70;96228.66;5049699;28;20272;-62
2020/12/18 09:33:27;;;;;;;49.08;26.33;;;;;;;5.94;69.69;96225.44;5049124;28;20239;-63
2020/12/18 09:35:58;;;;;;;47.33;26.25;;;;;;;5.94;69.21;96225.44;5040750;28;20203;-61
2020/12/18 09:38:39;;;;;;;47.47;26.58;;;;;;;5.86;69.81;96222.97;5046542;28;20216;-61
2020/12/18 09:41:12;;;;;;;48.08;28.15;;;;;;;5.99;70.27;96225.63;5044603;28;20274;-61
2020/12/18 09:43:38;;;;;;;48.38;27.63;;;;;;;6.05;69.79;96217.88;5044899;28;20885;-62
2020/12/18 09:46:11;;;;;;;49.70;28.02;;;;;;;6.05;69.49;96220.47;5050047;28;20218;-63
2020/12/18 09:48:44;;;;;;;52.33;28.58;;;;;;;6.00;69.67;96222.06;5049183;28;20201;-61
2020/12/18 09:51:11;;;;;;;46.45;26.38;;;;;;;6.11;69.43;96213.69;5050077;28;20228;-62
2020/12/18 09:53:38;;;;;;;40.03;26.00;;;;;;;6.27;69.06;96218.53;5048656;28;20208;-63
2020/12/18 09:56:10;;;;;;;45.90;25.80;;;;;;;6.34;68.36;96211.53;5049749;28;20633;-61
2020/12/18 09:58:37;;;;;;;49.92;27.58;;;;;;;6.25;68.62;96204.91;5049013;28;20247;-63
2020/12/18 10:01:05;;;;;;;46.67;28.95;;;;;;;6.33;68.72;96201.34;5049701;28;20173;-61
2020/12/18 10:03:31;;;;;;;52.25;29.30;;;;;;;6.19;68.71;96197.88;5046793;28;20682;-63
2020/12/18 10:05:58;;;;;;;49.13;28.63;;;;;;;6.30;68.68;96202.53;5049496;28;20292;-62
2020/12/18 10:08:30;;;;;;;50.70;29.48;;;;;;;6.46;68.28;96194.34;5049309;28;20181;-60
2020/12/18 10:10:56;;;;;;;50.42;28.42;;;;;;;6.56;67.69;96192.16;5049557;28;20291;-61
2020/12/18 10:13:24;;;;;;;48.60;29.30;;;;;;;6.54;67.21;96186.34;5048969;28;20740;-60
2020/12/18 10:15:51;;;;;;;52.03;28.38;;;;;;;6.61;67.64;96183.75;5049198;28;20188;-63
2020/12/18 10:18:17;;;;;;;46.78;28.67;;;;;;;6.76;66.60;96177.34;5048671;28;20271;-64
2020/12/18 10:20:44;;;;;;;47.63;29.20;;;;;;;6.70;66.40;96178.13;5049145;28;20541;-62
2020/12/18 10:23:10;;;;;;;50.85;29.20;;;;;;;6.73;66.62;96171.75;5049442;28;20740;-64
2020/12/18 10:25:52;;;;;;;82.35;52.67;;;;;;;6.68;67.44;96174.16;5047550;28;20192;-64
2020/12/18 10:28:19;;;;;;;58.25;34.15;;;;;;;6.78;67.59;96175.34;5049032;28;20200;-64
2020/12/18 10:30:45;;;;;;;57.45;34.60;;;;;;;6.65;67.32;96170.13;5048521;28;20250;-64
2020/12/18 10:33:11;;;;;;;52.45;31.10;;;;;;;6.62;66.27;96169.72;5048353;28;20246;-62
2020/12/18 10:35:38;;;;;;;51.47;31.02;;;;;;;6.52;66.53;96175.31;5048514;28;20203;-64
2020/12/18 10:38:04;;;;;;;51.15;30.55;;;;;;;6.39;66.95;96169.28;5049094;28;20219;-63
2020/12/18 10:40:33;;;;;;;50.20;29.88;;;;;;;6.70;66.68;96172.94;5048911;28;20226;-66
2020/12/18 10:43:00;;;;;;;49.63;30.42;;;;;;;6.87;66.48;96155.09;5048660;28;20216;-64
2020/12/18 10:45:26;;;;;;;76.22;48.22;;;;;;;7.04;66.15;96157.06;5048150;28;20188;-63
2020/12/18 10:47:53;;;;;;;71.25;42.30;;;;;;;7.25;66.35;96160.47;5048457;28;20203;-65
2020/12/18 10:50:20;;;;;;;84.13;53.20;;;;;;;7.05;65.76;96161.31;5048310;28;20188;-65
2020/12/18 10:52:47;;;;;;;50.80;30.08;;;;;;;7.32;66.02;96162.03;5048730;28;20579;-64
2020/12/18 10:55:14;;;;;;;52.63;28.90;;;;;;;7.38;65.01;96157.81;5048776;28;20214;-65
2020/12/18 10:57:41;;;;;;;51.72;28.65;;;;;;;7.53;64.35;96153.19;5048270;28;20643;-62
2020/12/18 11:00:07;;;;;;;50.30;27.65;;;;;;;7.62;63.90;96150.13;5048393;28;20195;-64
2020/12/18 11:02:35;;;;;;;42.80;28.23;;;;;;;7.76;63.59;96156.09;5047943;28;20279;-63
2020/12/18 11:05:03;;;;;;;51.67;29.60;;;;;;;7.79;62.84;96148.66;5047996;28;20512;-64
2020/12/18 11:07:29;;;;;;;45.95;28.70;;;;;;;7.87;63.05;96140.59;5047384;28;20664;-64
2020/12/18 11:09:57;;;;;;;55.22;30.42;;;;;;;7.89;62.75;96143.00;5047698;28;20550;-66
2020/12/18 11:12:25;;;;;;;46.83;29.05;;;;;;;8.12;62.52;96138.03;5045462;28;20714;-68
2020/12/18 11:14:51;;;;;;;43.47;27.60;;;;;;;8.29;62.21;96126.13;5047859;28;20200;-64
2020/12/18 11:17:17;;;;;;;43.42;27.38;;;;;;;8.02;62.55;96129.88;5048076;28;20501;-64
2020/12/18 11:19:44;;;;;;;46.28;28.23;;;;;;;8.27;61.29;96127.34;5046843;28;20299;-63
2020/12/18 11:22:10;;;;;;;46.28;28.75;;;;;;;8.27;60.45;96128.16;5048382;28;20181;-64
2020/12/18 11:24:37;;;;;;;42.83;27.42;;;;;;;8.26;60.95;96126.56;5047731;28;20298;-65
2020/12/18 11:27:04;;;;;;;44.15;27.60;;;;;;;8.26;61.33;96123.94;5048021;28;20301;-69
2020/12/18 11:29:30;;;;;;;47.20;29.93;;;;;;;8.53;60.86;96124.56;5047110;28;20249;-62
2020/12/18 11:31:56;;;;;;;47.75;28.98;;;;;;;9.07;58.44;96116.84;5048149;28;20940;-66
2020/12/18 11:34:23;;;;;;;43.03;26.20;;;;;;;9.18;58.71;96113.53;5047735;28;20315;-74
2020/12/18 11:36:49;;;;;;;45.13;27.50;;;;;;;9.68;56.72;96108.94;5047960;28;20447;-73
2020/12/18 11:39:16;;;;;;;40.77;27.20;;;;;;;10.22;54.52;96100.22;5047289;28;20474;-66
2020/12/18 11:41:46;;;;;;;42.65;26.80;;;;;;;11.22;52.60;96103.38;5047721;28;20439;-63
2020/12/18 11:44:13;;;;;;;36.33;25.42;;;;;;;12.19;50.12;96112.16;5047011;28;20188;-61
2020/12/18 11:46:39;;;;;;;38.73;24.73;;;;;;;13.17;47.82;96097.50;5047198;28;20203;-64
2020/12/18 11:49:06;;;;;;;46.97;29.10;;;;;;;13.85;46.20;96091.78;5044701;28;20548;-65
2020/12/18 11:51:35;;;;;;;45.77;29.47;;;;;;;14.71;45.21;96093.47;5063212;28;20745;-63
2020/12/18 11:54:01;;;;;;;38.97;28.17;;;;;;;14.80;44.96;96099.84;5045807;28;20423;-66